Cowden, Illinois
Current Conditions -  °F | °C
As of 10:55 AM on Saturday 20 Dec 2014 (Local Time) from K1H2 Reporting Station
Overcast Overcast  
Wind Chill: 29°   Ceiling: 6500
Heat Index: 33°   Visibility: 10mi
Dew Point: 26°   Wind: 5mph
Humidity: 73%   Direction: 130°SE
Pressure: 30.32"   Gusts: NA
Location:  39.25°N, 88.86°W
Report Text: K1H2 201655Z AUTO 13004KT 10SM OVC065 01/M04 A3032 RMK AO2 T00081036
Loading
Personal Weather Stations






























Interactive Weather Map New forecast layout! Learn more

10-Day Weather Forecast

Advertisements
Track Severe Weather on mobile